createdAt,value
2022-10-12T00:01:08.138Z,19.57
2022-10-12T00:03:59.091Z,20.00
2022-10-12T00:06:31.007Z,18.20
2022-10-12T00:09:04.800Z,19.27
2022-10-12T00:11:36.934Z,18.67
2022-10-12T00:14:07.354Z,19.77
2022-10-12T00:16:36.745Z,18.57
2022-10-12T00:19:06.744Z,20.17
2022-10-12T00:21:37.475Z,17.40
2022-10-12T00:24:09.784Z,18.37
2022-10-12T00:26:39.211Z,17.67
2022-10-12T00:29:14.261Z,18.03
2022-10-12T00:31:43.624Z,18.47
2022-10-12T00:34:13.723Z,18.57
2022-10-12T00:36:45.070Z,20.03
2022-10-12T00:39:16.262Z,18.43
2022-10-12T00:41:47.215Z,17.90
2022-10-12T00:44:37.149Z,17.90
2022-10-12T00:47:15.821Z,18.60
2022-10-12T00:49:45.320Z,17.93
2022-10-12T00:52:16.634Z,17.60
2022-10-12T00:54:49.178Z,18.20
2022-10-12T00:57:22.678Z,18.73
2022-10-12T00:59:55.151Z,18.33
2022-10-12T01:02:29.075Z,17.83
2022-10-12T01:05:00.257Z,18.13
2022-10-12T01:07:30.308Z,17.90
2022-10-12T01:10:01.584Z,16.77
2022-10-12T01:12:31.073Z,17.80
2022-10-12T01:15:00.232Z,17.03
2022-10-12T01:17:37.401Z,18.73
2022-10-12T01:20:35.028Z,17.13
2022-10-12T01:23:51.514Z,17.77
2022-10-12T01:26:54.611Z,19.53
2022-10-12T01:29:41.001Z,18.60
2022-10-12T01:32:19.155Z,16.93
2022-10-12T01:34:54.279Z,18.20
2022-10-12T01:37:33.241Z,19.13
2022-10-12T01:40:03.778Z,20.37
2022-10-12T01:42:36.028Z,19.17
2022-10-12T01:45:06.447Z,18.63
2022-10-12T01:47:38.449Z,19.67
2022-10-12T01:50:11.704Z,20.50
2022-10-12T01:52:44.845Z,18.60
2022-10-12T01:55:28.256Z,18.63
2022-10-12T01:58:06.257Z,20.13
2022-10-12T02:00:44.317Z,22.17
2022-10-12T02:03:19.399Z,22.63
2022-10-12T02:05:51.535Z,20.97
2022-10-12T02:08:23.974Z,22.53
2022-10-12T02:10:57.693Z,23.13
2022-10-12T02:13:32.097Z,24.17
2022-10-12T02:16:00.975Z,24.83
2022-10-12T02:18:35.217Z,23.87
2022-10-12T02:21:05.428Z,24.13
2022-10-12T02:23:39.240Z,24.23
2022-10-12T02:26:08.923Z,25.10
2022-10-12T02:28:40.717Z,25.67
2022-10-12T02:31:17.812Z,26.03
2022-10-12T02:33:55.716Z,25.00
2022-10-12T02:36:32.677Z,25.70
2022-10-12T02:39:05.968Z,26.00
2022-10-12T02:41:41.128Z,25.67
2022-10-12T02:44:14.400Z,25.27
2022-10-12T02:46:46.897Z,26.20
2022-10-12T02:49:20.071Z,26.47
2022-10-12T02:51:49.473Z,25.50
2022-10-12T02:54:21.141Z,27.60
2022-10-12T02:57:01.303Z,27.33
2022-10-12T02:59:30.727Z,25.43
2022-10-12T03:02:00.505Z,26.00
2022-10-12T03:04:31.448Z,26.97
2022-10-12T03:07:00.283Z,25.13
2022-10-12T03:09:29.500Z,23.77
2022-10-12T03:11:59.685Z,24.77
2022-10-12T03:14:29.283Z,24.57
2022-10-12T03:16:58.953Z,25.20
2022-10-12T03:19:30.229Z,24.13
2022-10-12T03:25:28.810Z,27.30
2022-10-12T03:27:58.217Z,25.73
2022-10-12T03:30:28.616Z,27.03
2022-10-12T03:32:59.031Z,27.23
2022-10-12T03:35:29.407Z,27.57
2022-10-12T03:37:58.868Z,27.47
2022-10-12T03:40:31.747Z,26.80
2022-10-12T03:43:01.063Z,28.00
2022-10-12T03:45:30.924Z,28.70
2022-10-12T03:48:04.712Z,29.37
2022-10-12T03:50:38.280Z,29.43
2022-10-12T03:53:07.458Z,28.67
2022-10-12T03:55:38.598Z,28.30
2022-10-12T03:58:08.324Z,28.10
2022-10-12T04:00:38.150Z,29.20
2022-10-12T04:03:06.698Z,27.77
2022-10-12T04:05:35.671Z,28.30
2022-10-12T04:08:04.235Z,28.80
2022-10-12T04:10:32.889Z,28.37
2022-10-12T04:13:06.853Z,30.40
2022-10-12T04:15:35.689Z,29.43
2022-10-12T04:18:04.393Z,30.27
2022-10-12T04:20:33.871Z,27.73
2022-10-12T04:23:03.221Z,28.90
2022-10-12T04:25:32.762Z,29.83
2022-10-12T04:28:06.388Z,32.30
2022-10-12T04:31:05.438Z,29.83
2022-10-12T04:33:34.643Z,28.73
2022-10-12T04:36:05.731Z,30.20
2022-10-12T04:38:35.765Z,29.77
2022-10-12T04:47:23.879Z,27.53
2022-10-12T05:02:28.749Z,28.60
2022-10-12T05:07:44.708Z,29.87
2022-10-12T05:12:52.008Z,29.77
2022-10-12T05:15:22.004Z,30.03
2022-10-12T05:18:24.974Z,31.53
2022-10-12T05:26:50.936Z,28.80
2022-10-12T05:29:24.613Z,29.37
2022-10-12T05:37:41.644Z,31.43
2022-10-12T07:42:33.323Z,17.60
2022-10-12T08:01:46.643Z,17.77
2022-10-12T08:10:20.876Z,19.23
2022-10-12T08:20:51.416Z,17.50
2022-10-12T08:23:58.335Z,19.30
2022-10-12T08:26:30.738Z,21.40
2022-10-12T08:29:03.615Z,21.50
2022-10-12T08:31:34.176Z,21.73
2022-10-12T08:34:05.033Z,24.53
2022-10-12T08:36:46.353Z,23.07
2022-10-12T08:39:19.562Z,23.13
2022-10-12T08:45:30.747Z,23.47
2022-10-12T08:54:08.249Z,23.83
2022-10-12T09:15:41.513Z,21.03
2022-10-12T09:18:26.404Z,20.00
2022-10-12T09:21:13.584Z,23.07
2022-10-12T09:26:46.138Z,21.83
2022-10-12T09:32:56.663Z,21.43
2022-10-12T09:35:30.317Z,17.73
2022-10-12T09:38:06.286Z,17.03
2022-10-12T09:40:50.163Z,15.00
2022-10-12T09:49:05.539Z,14.63
2022-10-12T09:57:24.644Z,14.73
2022-10-12T09:59:55.954Z,13.67
2022-10-12T10:05:31.246Z,13.07
2022-10-12T10:08:21.482Z,12.77
2022-10-12T10:17:13.734Z,11.43
2022-10-12T10:19:57.148Z,11.33
2022-10-12T10:23:05.323Z,11.57
2022-10-12T10:28:45.283Z,11.57
2022-10-12T10:31:36.474Z,12.20
2022-10-12T10:34:22.655Z,12.40
2022-10-12T10:40:09.613Z,10.83
2022-10-12T10:42:42.898Z,12.13
2022-10-12T10:45:33.033Z,11.50
2022-10-12T10:48:11.028Z,11.63
2022-10-12T10:50:42.249Z,11.47
2022-10-12T10:53:20.602Z,11.03
2022-10-12T10:55:56.638Z,11.47
2022-10-12T10:58:34.935Z,11.50
2022-10-12T11:01:16.297Z,11.00
2022-10-12T11:03:52.487Z,9.53
2022-10-12T11:06:35.420Z,10.90
2022-10-12T11:09:17.458Z,11.23
2022-10-12T11:15:00.313Z,10.50
2022-10-12T11:18:05.344Z,10.33
2022-10-12T11:20:59.249Z,9.80
2022-10-12T11:30:09.997Z,9.33
2022-10-12T11:32:43.083Z,10.33
2022-10-12T11:38:15.229Z,10.67
2022-10-12T11:41:31.000Z,14.43
2022-10-12T11:46:34.303Z,10.93
2022-10-12T11:49:10.265Z,10.43
2022-10-12T11:55:42.863Z,9.87
2022-10-12T12:01:29.835Z,12.17
2022-10-12T12:04:42.630Z,12.50
2022-10-12T12:14:56.536Z,13.07
2022-10-12T12:17:31.919Z,11.20
2022-10-12T12:22:59.464Z,10.37
2022-10-12T12:25:35.754Z,10.97
2022-10-12T12:28:21.571Z,10.77
2022-10-12T12:31:04.410Z,11.57
2022-10-12T12:33:51.472Z,10.37
2022-10-12T12:36:40.725Z,11.47
2022-10-12T12:39:24.569Z,11.70
2022-10-12T12:42:01.650Z,11.83
2022-10-12T12:47:46.332Z,11.80
2022-10-12T12:50:40.891Z,12.23
2022-10-12T12:53:20.330Z,11.33
2022-10-12T12:56:07.917Z,13.23
2022-10-12T13:02:18.824Z,12.37
2022-10-12T13:08:34.574Z,12.10
2022-10-12T13:11:45.077Z,12.20
2022-10-12T13:14:31.977Z,12.73
2022-10-12T13:20:19.991Z,13.03
2022-10-12T13:23:03.905Z,11.70
2022-10-12T13:25:42.588Z,12.20
2022-10-12T13:28:18.961Z,12.23
2022-10-12T15:24:38.725Z,13.60
2022-10-12T15:27:07.118Z,14.27
2022-10-12T15:29:35.480Z,13.33
2022-10-12T16:12:25.360Z,14.70
2022-10-12T16:32:11.598Z,14.83
2022-10-12T16:43:32.625Z,13.17
2022-10-12T16:46:16.828Z,13.77
2022-10-12T16:52:43.085Z,13.10
2022-10-12T17:52:33.050Z,15.50
2022-10-12T17:55:03.157Z,14.43
2022-10-12T18:24:55.529Z,14.33
2022-10-12T18:44:14.936Z,13.40
2022-10-12T18:55:21.933Z,11.30
2022-10-12T18:57:53.182Z,12.63
2022-10-12T19:00:22.708Z,11.67
2022-10-12T19:02:52.085Z,12.00
2022-10-12T19:05:21.790Z,11.33
2022-10-12T19:07:51.258Z,11.07
2022-10-12T19:10:37.573Z,11.70
2022-10-12T19:13:19.360Z,11.33
2022-10-12T19:15:57.539Z,11.90
2022-10-12T19:21:09.168Z,12.03
2022-10-12T19:35:45.441Z,12.77
2022-10-12T19:44:15.266Z,13.00
2022-10-12T19:46:48.155Z,13.10
2022-10-12T19:49:22.428Z,12.77
2022-10-12T19:51:51.241Z,13.50
2022-10-12T19:54:20.403Z,12.53
2022-10-12T19:56:49.151Z,13.37
2022-10-12T19:59:17.879Z,13.43
2022-10-12T20:01:49.421Z,12.77
2022-10-12T20:04:18.726Z,14.07
2022-10-12T20:06:47.522Z,14.23
2022-10-12T20:09:16.672Z,14.93
2022-10-12T20:11:44.957Z,13.57
2022-10-12T20:14:13.865Z,13.33
2022-10-12T20:16:42.596Z,13.40
2022-10-12T20:19:14.559Z,14.90
2022-10-12T20:21:43.871Z,14.47
2022-10-12T20:24:15.178Z,14.03
2022-10-12T20:26:45.186Z,13.17
2022-10-12T20:29:14.791Z,13.37
2022-10-12T20:31:44.527Z,14.53
2022-10-12T20:34:46.675Z,14.93
2022-10-12T20:37:20.085Z,13.50
2022-10-12T20:42:36.314Z,14.97
2022-10-12T20:45:05.019Z,15.10
2022-10-12T20:47:34.322Z,14.67
2022-10-12T20:50:04.499Z,14.73
2022-10-12T20:52:35.453Z,15.27
2022-10-12T20:55:06.088Z,14.60
2022-10-12T20:57:38.379Z,14.87
2022-10-12T21:00:13.832Z,15.67
2022-10-12T21:02:46.558Z,15.77
2022-10-12T21:05:31.933Z,15.13
2022-10-12T21:08:04.430Z,15.90
2022-10-12T21:10:39.937Z,14.60
2022-10-12T21:13:21.007Z,15.20
2022-10-12T21:15:54.531Z,14.80
2022-10-12T21:18:26.243Z,15.63
2022-10-12T21:20:56.609Z,15.37
2022-10-12T21:23:30.614Z,15.30
2022-10-12T21:25:59.630Z,16.27
2022-10-12T21:28:31.002Z,16.53
2022-10-12T21:31:05.437Z,14.47
2022-10-12T21:33:37.298Z,14.70
2022-10-12T21:36:13.902Z,15.90
2022-10-12T21:38:47.773Z,14.67
2022-10-12T21:41:20.021Z,15.87
2022-10-12T21:43:50.349Z,16.27
2022-10-12T21:46:22.272Z,17.00
2022-10-12T21:51:40.586Z,15.60
2022-10-12T21:54:20.135Z,15.67
2022-10-12T21:57:26.606Z,16.30
2022-10-12T21:59:59.794Z,16.00
2022-10-12T22:02:32.226Z,15.30
2022-10-12T22:05:02.077Z,16.33
2022-10-12T22:07:31.363Z,16.00
2022-10-12T22:10:02.650Z,15.57
2022-10-12T22:12:32.294Z,15.77
2022-10-12T22:15:00.833Z,15.47
2022-10-12T22:17:29.469Z,16.63
2022-10-12T22:19:59.569Z,16.17
2022-10-12T22:22:29.070Z,13.77
2022-10-12T22:24:58.476Z,15.77
2022-10-12T22:27:28.776Z,15.40
2022-10-12T22:29:59.544Z,14.77
2022-10-12T22:32:28.772Z,14.20
2022-10-12T22:34:58.383Z,14.53
2022-10-12T22:37:28.183Z,15.07
2022-10-12T22:39:56.931Z,15.20
2022-10-12T22:42:25.444Z,15.10
2022-10-12T22:44:56.975Z,14.50
2022-10-12T22:47:26.504Z,14.47
2022-10-12T22:49:55.114Z,14.50
2022-10-12T22:52:23.925Z,14.87
2022-10-12T22:54:52.667Z,15.07
2022-10-12T22:57:22.190Z,15.63
2022-10-12T22:59:51.881Z,14.43
2022-10-12T23:02:31.552Z,15.50
2022-10-12T23:05:00.249Z,13.67
2022-10-12T23:07:28.743Z,14.10
2022-10-12T23:09:57.761Z,15.20
2022-10-12T23:12:27.457Z,15.73
2022-10-12T23:14:56.249Z,14.90
2022-10-12T23:17:26.593Z,15.37
2022-10-12T23:19:55.340Z,15.87
2022-10-12T23:22:23.986Z,14.70
2022-10-12T23:24:52.790Z,14.97
2022-10-12T23:27:21.749Z,15.57
2022-10-12T23:29:52.234Z,13.87
2022-10-12T23:32:21.530Z,13.90
2022-10-12T23:34:53.112Z,13.47
2022-10-12T23:37:22.498Z,14.10
2022-10-12T23:39:51.335Z,15.00
2022-10-12T23:42:21.186Z,14.90
2022-10-12T23:44:50.655Z,14.80
2022-10-12T23:47:20.076Z,14.93
2022-10-12T23:49:49.071Z,15.20
2022-10-12T23:52:20.762Z,14.40
2022-10-12T23:54:50.555Z,15.10
2022-10-12T23:57:45.203Z,14.27
